createdAt,value
2018-11-01T00:00:54.427Z,1026.89
2018-11-01T00:01:54.451Z,1026.93
2018-11-01T00:02:54.480Z,1026.90
2018-11-01T00:03:54.503Z,1026.95
2018-11-01T00:04:54.528Z,1026.91
2018-11-01T00:05:54.553Z,1026.93
2018-11-01T00:06:54.580Z,1026.94
2018-11-01T00:07:54.605Z,1026.96
2018-11-01T00:08:54.631Z,1026.93
2018-11-01T00:09:54.657Z,1026.93
2018-11-01T00:10:54.681Z,1026.93
2018-11-01T00:11:54.710Z,1026.93
2018-11-01T00:12:54.733Z,1026.94
2018-11-01T00:13:54.761Z,1026.92
2018-11-01T00:14:54.783Z,1026.91
2018-11-01T00:15:54.807Z,1026.96
2018-11-01T00:16:54.832Z,1026.92
2018-11-01T00:17:54.859Z,1026.95
2018-11-01T00:18:54.884Z,1026.96
2018-11-01T00:19:54.911Z,1027.00
2018-11-01T00:20:54.935Z,1027.02
2018-11-01T00:21:54.961Z,1027.05
2018-11-01T00:22:54.986Z,1027.06
2018-11-01T00:23:55.012Z,1027.10
2018-11-01T00:24:55.037Z,1027.12
2018-11-01T00:25:55.065Z,1027.07
2018-11-01T00:26:55.089Z,1027.12
2018-11-01T00:27:55.114Z,1027.11
2018-11-01T00:28:55.137Z,1027.16
2018-11-01T00:29:55.167Z,1027.20
2018-11-01T00:30:55.188Z,1027.19
2018-11-01T00:31:55.214Z,1027.16
2018-11-01T00:32:55.241Z,1027.21
2018-11-01T00:33:55.266Z,1027.25
2018-11-01T00:34:55.292Z,1027.23
2018-11-01T00:35:55.315Z,1027.21
2018-11-01T00:36:55.341Z,1027.23
2018-11-01T00:37:55.365Z,1027.27
2018-11-01T00:38:55.391Z,1027.24
2018-11-01T00:39:55.419Z,1027.22
2018-11-01T00:40:55.443Z,1027.27
2018-11-01T00:41:55.467Z,1027.30
2018-11-01T00:42:55.495Z,1027.28
2018-11-01T00:43:55.520Z,1027.25
2018-11-01T00:44:55.544Z,1027.31
2018-11-01T00:45:55.566Z,1027.33
2018-11-01T00:46:55.599Z,1027.27
2018-11-01T00:47:55.620Z,1027.28
2018-11-01T00:48:55.642Z,1027.23
2018-11-01T00:49:55.669Z,1027.23
2018-11-01T00:50:55.698Z,1027.25
2018-11-01T00:51:55.720Z,1027.21
2018-11-01T00:52:55.745Z,1027.23
2018-11-01T00:53:55.769Z,1027.22
2018-11-01T00:54:55.800Z,1027.19
2018-11-01T00:55:55.822Z,1027.22
2018-11-01T00:56:55.851Z,1027.17
2018-11-01T00:57:55.875Z,1027.21
2018-11-01T00:58:55.903Z,1027.20
2018-11-01T00:59:55.924Z,1027.19
2018-11-01T01:00:55.950Z,1027.23
2018-11-01T01:01:55.972Z,1027.19
2018-11-01T01:02:56.000Z,1027.19
2018-11-01T01:03:56.027Z,1027.19
2018-11-01T01:04:56.051Z,1027.16
2018-11-01T01:05:56.073Z,1027.20
2018-11-01T01:06:56.104Z,1027.18
2018-11-01T01:07:56.128Z,1027.16
2018-11-01T01:08:56.148Z,1027.21
2018-11-01T01:09:56.176Z,1027.26
2018-11-01T01:10:56.199Z,1027.20
2018-11-01T01:11:56.230Z,1027.22
2018-11-01T01:12:56.252Z,1027.17
2018-11-01T01:13:56.275Z,1027.21
2018-11-01T01:14:56.303Z,1027.22
2018-11-01T01:15:56.331Z,1027.14
2018-11-01T01:16:56.350Z,1027.13
2018-11-01T01:17:56.376Z,1027.15
2018-11-01T01:18:56.451Z,1027.16
2018-11-01T01:19:56.425Z,1027.19
2018-11-01T01:20:56.453Z,1027.18
2018-11-01T01:21:56.479Z,1027.16
2018-11-01T01:22:56.503Z,1027.14
2018-11-01T01:23:56.527Z,1027.14
2018-11-01T01:24:56.553Z,1027.17
2018-11-01T01:25:56.581Z,1027.22
2018-11-01T01:26:56.603Z,1027.14
2018-11-01T01:27:56.628Z,1027.15
2018-11-01T01:28:56.652Z,1027.12
2018-11-01T01:29:56.675Z,1027.14
2018-11-01T01:30:56.700Z,1027.13
2018-11-01T01:31:56.728Z,1027.15
2018-11-01T01:32:56.751Z,1027.16
2018-11-01T01:33:56.774Z,1027.13
2018-11-01T01:34:56.803Z,1027.14
2018-11-01T01:35:56.826Z,1027.18
2018-11-01T01:36:56.849Z,1027.18
2018-11-01T01:37:56.876Z,1027.23
2018-11-01T01:38:56.909Z,1027.25
2018-11-01T01:39:56.928Z,1027.28
2018-11-01T01:40:56.950Z,1027.27
2018-11-01T01:41:56.976Z,1027.29
2018-11-01T01:42:57.003Z,1027.28
2018-11-01T01:43:57.026Z,1027.27
2018-11-01T01:44:57.051Z,1027.29
2018-11-01T01:45:57.083Z,1027.30
2018-11-01T01:46:57.100Z,1027.30
2018-11-01T01:47:57.126Z,1027.28
2018-11-01T01:48:57.151Z,1027.28
2018-11-01T01:49:57.173Z,1027.25
2018-11-01T01:50:57.201Z,1027.23
2018-11-01T01:51:57.224Z,1027.15
2018-11-01T01:52:57.248Z,1027.12
2018-11-01T01:53:57.276Z,1027.13
2018-11-01T01:54:57.299Z,1027.15
2018-11-01T01:55:57.371Z,1027.15
2018-11-01T01:56:57.346Z,1027.14
2018-11-01T01:57:57.373Z,1027.16
2018-11-01T01:58:57.396Z,1027.16
2018-11-01T01:59:57.422Z,1027.16
2018-11-01T02:00:57.445Z,1027.14
2018-11-01T02:01:57.472Z,1027.16
2018-11-01T02:02:57.495Z,1027.14
2018-11-01T02:03:57.520Z,1027.12
2018-11-01T02:04:57.544Z,1027.14
2018-11-01T02:05:57.568Z,1027.14
2018-11-01T02:06:57.593Z,1027.18
2018-11-01T02:07:57.620Z,1027.22
2018-11-01T02:08:57.644Z,1027.24
2018-11-01T02:09:57.670Z,1027.24
2018-11-01T02:10:57.691Z,1027.20
2018-11-01T02:11:57.719Z,1027.25
2018-11-01T02:12:57.740Z,1027.21
2018-11-01T02:13:57.766Z,1027.23
2018-11-01T02:14:57.790Z,1027.23
2018-11-01T02:15:57.817Z,1027.25
2018-11-01T02:16:57.837Z,1027.28
2018-11-01T02:17:57.864Z,1027.26
2018-11-01T02:18:57.888Z,1027.28
2018-11-01T02:19:57.913Z,1027.33
2018-11-01T02:20:57.936Z,1027.29
2018-11-01T02:21:57.960Z,1027.28
2018-11-01T02:22:57.987Z,1027.27
2018-11-01T02:23:58.010Z,1027.26
2018-11-01T02:24:58.037Z,1027.26
2018-11-01T02:25:58.060Z,1027.29
2018-11-01T02:26:58.081Z,1027.30
2018-11-01T02:27:58.107Z,1027.31
2018-11-01T02:28:58.129Z,1027.31
2018-11-01T02:29:58.157Z,1027.35
2018-11-01T02:30:58.186Z,1027.37
2018-11-01T02:31:58.204Z,1027.37
2018-11-01T02:32:58.228Z,1027.35
2018-11-01T02:33:58.250Z,1027.40
2018-11-01T02:34:58.278Z,1027.40
2018-11-01T02:35:58.299Z,1027.38
2018-11-01T02:36:58.327Z,1027.38
2018-11-01T02:37:58.403Z,1027.39
2018-11-01T02:38:58.375Z,1027.36
2018-11-01T02:39:58.399Z,1027.39
2018-11-01T02:40:58.422Z,1027.42
2018-11-01T02:41:58.446Z,1027.39
2018-11-01T02:42:58.472Z,1027.42
2018-11-01T02:43:58.500Z,1027.42
2018-11-01T02:44:58.519Z,1027.43
2018-11-01T02:45:58.543Z,1027.39
2018-11-01T02:46:58.569Z,1027.43
2018-11-01T02:47:58.594Z,1027.37
2018-11-01T02:48:58.618Z,1027.37
2018-11-01T02:49:58.642Z,1027.40
2018-11-01T02:50:58.663Z,1027.42
2018-11-01T02:51:58.687Z,1027.41
2018-11-01T02:52:58.710Z,1027.42
2018-11-01T02:53:58.738Z,1027.44
2018-11-01T02:54:58.763Z,1027.39
2018-11-01T02:55:58.798Z,1027.39
2018-11-01T02:56:58.810Z,1027.41
2018-11-01T02:57:58.833Z,1027.41
2018-11-01T02:58:58.856Z,1027.40
2018-11-01T02:59:58.882Z,1027.33
2018-11-01T03:00:58.906Z,1027.32
2018-11-01T03:01:58.928Z,1027.35
2018-11-01T03:02:58.966Z,1027.33
2018-11-01T03:03:58.979Z,1027.28
2018-11-01T03:04:59.002Z,1027.30
2018-11-01T03:05:59.025Z,1027.28
2018-11-01T03:06:59.051Z,1027.25
2018-11-01T03:07:59.076Z,1027.26
2018-11-01T03:08:59.106Z,1027.31
2018-11-01T03:09:59.123Z,1027.27
2018-11-01T03:10:59.147Z,1027.24
2018-11-01T03:11:59.176Z,1027.24
2018-11-01T03:12:59.195Z,1027.28
2018-11-01T03:13:59.219Z,1027.28
2018-11-01T03:14:59.244Z,1027.28
2018-11-01T03:15:59.271Z,1027.30
2018-11-01T03:16:59.307Z,1027.28
2018-11-01T03:17:59.321Z,1027.25
2018-11-01T03:18:59.340Z,1027.25
2018-11-01T03:19:59.367Z,1027.27
2018-11-01T03:20:59.393Z,1027.26
2018-11-01T03:21:59.413Z,1027.25
2018-11-01T03:22:59.438Z,1027.22
2018-11-01T03:23:59.463Z,1027.21
2018-11-01T03:24:59.486Z,1027.24
2018-11-01T03:25:59.507Z,1027.27
2018-11-01T03:26:59.533Z,1027.26
2018-11-01T03:27:59.559Z,1027.30
2018-11-01T03:28:59.580Z,1027.29
2018-11-01T03:29:59.603Z,1027.27
2018-11-01T03:30:59.629Z,1027.28
2018-11-01T03:31:59.656Z,1027.32
2018-11-01T03:32:59.679Z,1027.35
2018-11-01T03:33:59.701Z,1027.32
2018-11-01T03:34:59.731Z,1027.33
2018-11-01T03:35:59.755Z,1027.29
2018-11-01T03:36:59.772Z,1027.27
2018-11-01T03:37:59.839Z,1027.25
2018-11-01T03:38:59.843Z,1027.23
2018-11-01T03:39:59.845Z,1027.28
2018-11-01T03:40:59.870Z,1027.26
2018-11-01T03:41:59.895Z,1027.29
2018-11-01T03:42:59.916Z,1027.31
2018-11-01T03:43:59.943Z,1027.31
2018-11-01T03:44:59.964Z,1027.29
2018-11-01T03:45:59.991Z,1027.30
2018-11-01T03:47:00.014Z,1027.29
2018-11-01T03:48:00.036Z,1027.28
2018-11-01T03:49:00.060Z,1027.28
2018-11-01T03:50:00.087Z,1027.26
2018-11-01T03:51:00.111Z,1027.27
2018-11-01T03:52:00.239Z,1027.23
2018-11-01T03:53:00.157Z,1027.23
2018-11-01T03:54:00.183Z,1027.18
2018-11-01T03:55:00.208Z,1027.22
2018-11-01T03:56:00.227Z,1027.22
2018-11-01T03:57:00.250Z,1027.28
2018-11-01T03:58:00.273Z,1027.28
2018-11-01T03:59:00.302Z,1027.26
2018-11-01T04:00:00.327Z,1027.27
2018-11-01T04:01:00.351Z,1027.27
2018-11-01T04:02:00.369Z,1027.24
2018-11-01T04:03:00.397Z,1027.23
2018-11-01T04:04:00.418Z,1027.24
2018-11-01T04:05:00.444Z,1027.22
2018-11-01T04:06:00.463Z,1027.21
2018-11-01T04:07:00.488Z,1027.23
2018-11-01T04:08:00.517Z,1027.23
2018-11-01T04:09:00.535Z,1027.28
2018-11-01T04:10:00.560Z,1027.29
2018-11-01T04:11:00.584Z,1027.29
2018-11-01T04:12:00.609Z,1027.30
2018-11-01T04:13:00.630Z,1027.26
2018-11-01T04:14:00.658Z,1027.28
2018-11-01T04:15:00.690Z,1027.31
2018-11-01T04:16:00.706Z,1027.27
2018-11-01T04:17:00.830Z,1027.29
2018-11-01T04:18:00.751Z,1027.30
2018-11-01T04:19:00.774Z,1027.31
2018-11-01T04:20:00.798Z,1027.34
2018-11-01T04:21:00.829Z,1027.35
2018-11-01T04:22:00.854Z,1027.31
2018-11-01T04:23:00.915Z,1027.37
2018-11-01T04:24:00.896Z,1027.34
2018-11-01T04:25:00.917Z,1027.35
2018-11-01T04:26:00.942Z,1027.32
2018-11-01T04:27:00.966Z,1027.33
2018-11-01T04:28:00.988Z,1027.37
2018-11-01T04:29:01.027Z,1027.33
2018-11-01T04:30:01.036Z,1027.36
2018-11-01T04:31:01.060Z,1027.37
2018-11-01T04:32:01.092Z,1027.36
2018-11-01T04:33:01.216Z,1027.35
2018-11-01T04:34:01.131Z,1027.36
2018-11-01T04:35:01.158Z,1027.37
2018-11-01T04:36:01.195Z,1027.34
2018-11-01T04:37:01.206Z,1027.38
2018-11-01T04:38:01.228Z,1027.37
2018-11-01T04:39:01.251Z,1027.38
2018-11-01T04:40:01.277Z,1027.37
2018-11-01T04:41:01.303Z,1027.32
2018-11-01T04:42:01.322Z,1027.34
2018-11-01T04:43:01.436Z,1027.33
2018-11-01T04:44:01.386Z,1027.35
2018-11-01T04:45:01.397Z,1027.33
2018-11-01T04:46:01.417Z,1027.35
2018-11-01T04:47:01.444Z,1027.31
2018-11-01T04:48:01.534Z,1027.30
2018-11-01T04:49:01.498Z,1027.29
2018-11-01T04:50:01.514Z,1027.28
2018-11-01T04:51:01.536Z,1027.26
2018-11-01T04:52:01.562Z,1027.21
2018-11-01T04:53:01.584Z,1027.22
2018-11-01T04:54:01.610Z,1027.18
2018-11-01T04:55:01.635Z,1027.16
2018-11-01T04:56:01.662Z,1027.14
2018-11-01T04:57:01.681Z,1027.18
2018-11-01T04:58:01.705Z,1027.16
2018-11-01T04:59:01.729Z,1027.14
2018-11-01T05:00:01.757Z,1027.14
2018-11-01T05:01:01.780Z,1027.17
2018-11-01T05:02:01.800Z,1027.15
2018-11-01T05:03:01.826Z,1027.16
2018-11-01T05:04:01.852Z,1027.17
2018-11-01T05:05:01.944Z,1027.19
2018-11-01T05:06:01.896Z,1027.20
2018-11-01T05:07:01.928Z,1027.20
2018-11-01T05:08:01.971Z,1027.24
2018-11-01T05:09:01.968Z,1027.29
2018-11-01T05:10:02.003Z,1027.24
2018-11-01T05:11:02.015Z,1027.26
2018-11-01T05:12:02.040Z,1027.25
2018-11-01T05:13:02.073Z,1027.27
2018-11-01T05:14:02.088Z,1027.24
2018-11-01T05:15:02.173Z,1027.21
2018-11-01T05:16:02.135Z,1027.26
2018-11-01T05:17:02.159Z,1027.27
2018-11-01T05:18:02.185Z,1027.28
2018-11-01T05:19:02.207Z,1027.33
2018-11-01T05:20:02.239Z,1027.32
2018-11-01T05:21:02.255Z,1027.29
2018-11-01T05:22:02.279Z,1027.28
2018-11-01T05:23:02.302Z,1027.32
2018-11-01T05:24:02.369Z,1027.35
2018-11-01T05:25:02.350Z,1027.36
2018-11-01T05:26:02.497Z,1027.30
2018-11-01T05:27:02.402Z,1027.38
2018-11-01T05:28:02.425Z,1027.40
2018-11-01T05:29:02.448Z,1027.40
2018-11-01T05:30:02.469Z,1027.44
2018-11-01T05:31:02.495Z,1027.43
2018-11-01T05:32:02.516Z,1027.43
2018-11-01T05:33:02.543Z,1027.43
2018-11-01T05:34:02.565Z,1027.49
2018-11-01T05:35:02.592Z,1027.47
2018-11-01T05:36:02.614Z,1027.53
2018-11-01T05:37:02.636Z,1027.55
2018-11-01T05:38:02.702Z,1027.57
2018-11-01T05:39:02.687Z,1027.56
2018-11-01T05:40:02.709Z,1027.55
2018-11-01T05:41:02.733Z,1027.54
2018-11-01T05:42:02.770Z,1027.56
2018-11-01T05:43:02.781Z,1027.57
2018-11-01T05:44:02.804Z,1027.56
2018-11-01T05:45:02.828Z,1027.58
2018-11-01T05:46:02.851Z,1027.57
2018-11-01T05:47:02.874Z,1027.58
2018-11-01T05:48:02.900Z,1027.64
2018-11-01T05:49:02.923Z,1027.63
2018-11-01T05:50:02.947Z,1027.62
2018-11-01T05:51:02.973Z,1027.65
2018-11-01T05:52:02.995Z,1027.62
2018-11-01T05:53:03.019Z,1027.65
2018-11-01T05:54:03.045Z,1027.63
2018-11-01T05:55:03.067Z,1027.65
2018-11-01T05:56:03.090Z,1027.69
2018-11-01T05:57:03.114Z,1027.66
2018-11-01T05:58:03.137Z,1027.66
2018-11-01T05:59:03.161Z,1027.66
2018-11-01T06:00:03.271Z,1027.67
2018-11-01T06:01:03.209Z,1027.68
2018-11-01T06:02:03.232Z,1027.68
2018-11-01T06:03:03.255Z,1027.70
2018-11-01T06:04:03.283Z,1027.69
2018-11-01T06:05:03.304Z,1027.69
2018-11-01T06:06:03.329Z,1027.64
2018-11-01T06:07:03.353Z,1027.67
2018-11-01T06:08:03.377Z,1027.63
2018-11-01T06:09:03.402Z,1027.70
2018-11-01T06:10:03.426Z,1027.71
2018-11-01T06:11:03.452Z,1027.72
2018-11-01T06:12:03.478Z,1027.74
2018-11-01T06:13:03.502Z,1027.73
2018-11-01T06:14:03.525Z,1027.72
2018-11-01T06:15:03.553Z,1027.81
2018-11-01T06:16:03.575Z,1027.77
2018-11-01T06:17:03.599Z,1027.80
2018-11-01T06:18:03.627Z,1027.85
2018-11-01T06:19:03.657Z,1027.88
2018-11-01T06:20:03.677Z,1027.90
2018-11-01T06:21:03.703Z,1027.91
2018-11-01T06:22:03.727Z,1027.93
2018-11-01T06:23:03.758Z,1027.90
2018-11-01T06:24:03.781Z,1027.94
2018-11-01T06:25:03.806Z,1028.02
2018-11-01T06:26:03.833Z,1027.98
2018-11-01T06:27:03.861Z,1028.04
2018-11-01T06:28:03.889Z,1027.96
2018-11-01T06:29:03.913Z,1027.98
2018-11-01T06:30:03.939Z,1027.98
2018-11-01T06:31:03.966Z,1027.98
2018-11-01T06:32:03.993Z,1028.02
2018-11-01T06:33:04.022Z,1027.98
2018-11-01T06:34:04.052Z,1028.00
2018-11-01T06:35:04.077Z,1028.00
2018-11-01T06:36:04.103Z,1027.99
2018-11-01T06:37:04.127Z,1027.99
2018-11-01T06:38:04.154Z,1027.96
2018-11-01T06:39:04.184Z,1028.00
2018-11-01T06:40:04.209Z,1028.02
2018-11-01T06:41:04.237Z,1028.03
2018-11-01T06:42:04.262Z,1028.05
2018-11-01T06:43:04.288Z,1027.96
2018-11-01T06:44:04.317Z,1027.94
2018-11-01T06:45:04.343Z,1028.01
2018-11-01T06:46:04.371Z,1027.94
2018-11-01T06:47:04.399Z,1028.01
2018-11-01T06:48:04.426Z,1027.92
2018-11-01T06:49:04.452Z,1028.02
2018-11-01T06:50:04.479Z,1027.98
2018-11-01T06:51:04.508Z,1027.95
2018-11-01T06:52:04.539Z,1027.94
2018-11-01T06:53:04.563Z,1027.92
2018-11-01T06:54:04.592Z,1027.99
2018-11-01T06:55:04.617Z,1027.97
2018-11-01T06:56:04.642Z,1027.95
2018-11-01T06:57:04.669Z,1027.97
2018-11-01T06:58:04.704Z,1027.96
2018-11-01T06:59:04.891Z,1027.99
2018-11-01T07:00:04.750Z,1028.02
2018-11-01T07:01:04.780Z,1028.01
2018-11-01T07:02:04.804Z,1028.00
2018-11-01T07:03:04.831Z,1028.01
2018-11-01T07:04:04.860Z,1028.06
2018-11-01T07:05:04.887Z,1028.09
2018-11-01T07:06:04.912Z,1028.03
2018-11-01T07:07:04.939Z,1028.08
2018-11-01T07:08:04.969Z,1028.04
2018-11-01T07:09:05.002Z,1028.04
2018-11-01T07:10:05.020Z,1028.06
2018-11-01T07:11:05.050Z,1028.04
2018-11-01T07:12:05.084Z,1028.06
2018-11-01T07:13:05.102Z,1028.01
2018-11-01T07:14:05.132Z,1028.04
2018-11-01T07:15:05.156Z,1028.02
2018-11-01T07:16:05.184Z,1027.94
2018-11-01T07:17:05.237Z,1027.91
2018-11-01T07:18:05.241Z,1027.92
2018-11-01T07:19:05.271Z,1027.98
2018-11-01T07:20:05.297Z,1027.96
2018-11-01T07:21:05.321Z,1027.99
2018-11-01T07:22:05.351Z,1027.93
2018-11-01T07:23:05.375Z,1027.92
2018-11-01T07:24:05.404Z,1027.89
2018-11-01T07:25:05.431Z,1027.88
2018-11-01T07:26:05.612Z,1027.89
2018-11-01T07:27:05.485Z,1027.87
2018-11-01T07:28:05.515Z,1027.79
2018-11-01T07:29:05.540Z,1027.82
2018-11-01T07:30:05.569Z,1027.82
2018-11-01T07:31:05.595Z,1027.81
2018-11-01T07:32:05.622Z,1027.88
2018-11-01T07:33:05.683Z,1027.90
2018-11-01T07:34:05.677Z,1027.93
2018-11-01T07:35:05.704Z,1027.89
2018-11-01T07:36:05.734Z,1027.86
2018-11-01T07:37:05.759Z,1027.90
2018-11-01T07:38:05.791Z,1027.83
2018-11-01T07:39:05.816Z,1027.88
2018-11-01T07:40:05.891Z,1027.91
2018-11-01T07:41:05.868Z,1027.85
2018-11-01T07:42:05.896Z,1027.85
2018-11-01T07:43:05.930Z,1027.82
2018-11-01T07:44:05.955Z,1027.77
2018-11-01T07:45:05.981Z,1027.81
2018-11-01T07:46:06.008Z,1027.79
2018-11-01T07:47:06.038Z,1027.80
2018-11-01T07:48:06.066Z,1027.74
2018-11-01T07:49:06.091Z,1027.74
2018-11-01T07:50:06.118Z,1027.70
2018-11-01T07:51:06.148Z,1027.67
2018-11-01T07:52:06.178Z,1027.66
2018-11-01T07:53:06.209Z,1027.65
2018-11-01T07:54:06.232Z,1027.63
2018-11-01T07:55:06.260Z,1027.65
2018-11-01T07:56:06.289Z,1027.68
2018-11-01T07:57:06.319Z,1027.64
2018-11-01T07:58:06.347Z,1027.68
2018-11-01T07:59:06.372Z,1027.69
2018-11-01T08:00:06.403Z,1027.70
2018-11-01T08:01:06.431Z,1027.72
2018-11-01T08:02:06.458Z,1027.63
2018-11-01T08:03:06.485Z,1027.64
2018-11-01T08:04:06.517Z,1027.65
2018-11-01T08:05:06.545Z,1027.65
2018-11-01T08:06:06.615Z,1027.61
2018-11-01T08:07:06.603Z,1027.62
2018-11-01T08:08:06.630Z,1027.64
2018-11-01T08:09:06.660Z,1027.58
2018-11-01T08:10:06.686Z,1027.57
2018-11-01T08:11:06.755Z,1027.58
2018-11-01T08:12:06.744Z,1027.57
2018-11-01T08:13:06.776Z,1027.58
2018-11-01T08:14:06.805Z,1027.58
2018-11-01T08:15:06.831Z,1027.57
2018-11-01T08:16:06.863Z,1027.54
2018-11-01T08:17:06.897Z,1027.52
2018-11-01T08:18:06.917Z,1027.56
2018-11-01T08:19:06.946Z,1027.54
2018-11-01T08:20:07.160Z,1027.58
2018-11-01T08:21:07.201Z,1027.60
2018-11-01T08:22:07.038Z,1027.63
2018-11-01T08:23:07.062Z,1027.64
2018-11-01T08:24:07.094Z,1027.60
2018-11-01T08:25:07.122Z,1027.59
2018-11-01T08:26:07.153Z,1027.61
2018-11-01T08:27:07.181Z,1027.62
2018-11-01T08:28:07.326Z,1027.62
2018-11-01T08:29:07.237Z,1027.62
2018-11-01T08:30:07.275Z,1027.60
2018-11-01T08:31:07.295Z,1027.62
2018-11-01T08:32:07.329Z,1027.58
2018-11-01T08:33:07.357Z,1027.61
2018-11-01T08:34:07.385Z,1027.57
2018-11-01T08:35:07.418Z,1027.54
2018-11-01T08:36:07.447Z,1027.55
2018-11-01T08:37:07.472Z,1027.57
2018-11-01T08:38:07.504Z,1027.55
2018-11-01T08:39:07.593Z,1027.45
2018-11-01T08:40:07.563Z,1027.48
2018-11-01T08:41:07.595Z,1027.42
2018-11-01T08:42:07.621Z,1027.42
2018-11-01T08:43:07.651Z,1027.36
2018-11-01T08:44:07.685Z,1027.34
2018-11-01T08:45:07.715Z,1027.30
2018-11-01T08:46:07.741Z,1027.30
2018-11-01T08:47:07.773Z,1027.27
2018-11-01T08:48:07.802Z,1027.27
2018-11-01T08:49:07.840Z,1027.25
2018-11-01T08:50:07.921Z,1027.22
2018-11-01T08:51:07.894Z,1027.24
2018-11-01T08:52:07.930Z,1027.27
2018-11-01T08:53:07.953Z,1027.28
2018-11-01T08:54:07.984Z,1027.29
2018-11-01T08:55:08.016Z,1027.28
2018-11-01T08:56:08.046Z,1027.28
2018-11-01T08:57:08.076Z,1027.27
2018-11-01T08:58:08.103Z,1027.24
2018-11-01T08:59:08.133Z,1027.24
2018-11-01T09:00:08.167Z,1027.23
2018-11-01T09:01:08.199Z,1027.25
2018-11-01T09:02:08.222Z,1027.31
2018-11-01T09:03:08.256Z,1027.29
2018-11-01T09:04:08.309Z,1027.32
2018-11-01T09:05:08.316Z,1027.29
2018-11-01T09:06:08.344Z,1027.35
2018-11-01T09:07:08.373Z,1027.37
2018-11-01T09:08:08.520Z,1027.36
2018-11-01T09:09:08.437Z,1027.38
2018-11-01T09:10:08.464Z,1027.37
2018-11-01T09:11:08.497Z,1027.34
2018-11-01T09:12:08.526Z,1027.30
2018-11-01T09:13:08.599Z,1027.29
2018-11-01T09:14:08.587Z,1027.24
2018-11-01T09:15:08.615Z,1027.27
2018-11-01T09:16:08.647Z,1027.26
2018-11-01T09:17:08.678Z,1027.35
2018-11-01T09:18:08.707Z,1027.29
2018-11-01T09:19:08.793Z,1027.32
2018-11-01T09:20:08.769Z,1027.36
2018-11-01T09:21:08.797Z,1027.42
2018-11-01T09:22:08.827Z,1027.40
2018-11-01T09:23:08.857Z,1027.39
2018-11-01T09:24:08.890Z,1027.34
2018-11-01T09:25:08.923Z,1027.37
2018-11-01T09:26:08.948Z,1027.33
2018-11-01T09:27:09.031Z,1027.33
2018-11-01T09:28:09.014Z,1027.35
2018-11-01T09:29:09.043Z,1027.35
2018-11-01T09:30:09.072Z,1027.33
2018-11-01T09:31:09.104Z,1027.36
2018-11-01T09:32:09.131Z,1027.31
2018-11-01T09:33:09.161Z,1027.35
2018-11-01T09:34:09.191Z,1027.34
2018-11-01T09:35:09.224Z,1027.33
2018-11-01T09:36:09.257Z,1027.30
2018-11-01T09:37:09.285Z,1027.35
2018-11-01T09:38:09.313Z,1027.36
2018-11-01T09:39:09.343Z,1027.32
2018-11-01T09:40:09.375Z,1027.29
2018-11-01T09:41:09.406Z,1027.30
2018-11-01T09:42:09.436Z,1027.35
2018-11-01T09:43:09.470Z,1027.37
2018-11-01T09:44:09.497Z,1027.36
2018-11-01T09:45:09.526Z,1027.40
2018-11-01T09:46:09.761Z,1027.39
2018-11-01T09:47:09.979Z,1027.38
2018-11-01T09:48:09.621Z,1027.40
2018-11-01T09:49:09.647Z,1027.39
2018-11-01T09:50:09.681Z,1027.40
2018-11-01T09:51:09.710Z,1027.38
2018-11-01T09:52:09.741Z,1027.40
2018-11-01T09:53:09.770Z,1027.37
2018-11-01T09:54:09.803Z,1027.43
2018-11-01T09:55:09.833Z,1027.46
2018-11-01T09:56:09.947Z,1027.43
2018-11-01T09:57:09.896Z,1027.41
2018-11-01T09:58:09.925Z,1027.40
2018-11-01T09:59:09.960Z,1027.40
2018-11-01T10:00:09.991Z,1027.38
2018-11-01T10:01:10.093Z,1027.35
2018-11-01T10:02:10.052Z,1027.36
2018-11-01T10:03:10.084Z,1027.34
2018-11-01T10:04:10.112Z,1027.33
2018-11-01T10:05:10.145Z,1027.33
2018-11-01T10:06:10.201Z,1027.34
2018-11-01T10:07:10.392Z,1027.34
2018-11-01T10:08:10.240Z,1027.33
2018-11-01T10:09:10.267Z,1027.31
2018-11-01T10:10:10.299Z,1027.30
2018-11-01T10:11:10.329Z,1027.29
2018-11-01T10:12:10.363Z,1027.30
2018-11-01T10:13:10.392Z,1027.30
2018-11-01T10:14:10.425Z,1027.28
2018-11-01T10:15:10.562Z,1027.25
2018-11-01T10:16:10.607Z,1027.24
2018-11-01T10:17:10.930Z,1027.27
2018-11-01T10:18:11.082Z,1027.26
2018-11-01T10:19:10.582Z,1027.25
2018-11-01T10:20:10.613Z,1027.23
2018-11-01T10:21:10.711Z,1027.21
2018-11-01T10:22:10.707Z,1027.21
2018-11-01T10:23:10.817Z,1027.18
2018-11-01T10:24:10.736Z,1027.18
2018-11-01T10:25:10.773Z,1027.20
2018-11-01T10:26:10.797Z,1027.21
2018-11-01T10:27:19.515Z,1027.19
2018-11-01T10:28:10.872Z,1027.24
2018-11-01T10:29:10.894Z,1027.20
2018-11-01T10:30:10.925Z,1027.21
2018-11-01T10:31:10.956Z,1027.14
2018-11-01T10:32:10.990Z,1027.11
2018-11-01T10:33:11.018Z,1027.06
2018-11-01T10:34:11.050Z,1026.98
2018-11-01T10:35:11.084Z,1027.01
2018-11-01T10:36:11.116Z,1026.98
2018-11-01T10:37:11.145Z,1026.99
2018-11-01T10:38:11.178Z,1026.94
2018-11-01T10:39:11.206Z,1026.96
2018-11-01T10:40:11.241Z,1026.93
2018-11-01T10:41:11.273Z,1026.92
2018-11-01T10:42:11.303Z,1026.89
2018-11-01T10:43:11.334Z,1026.93
2018-11-01T10:44:11.364Z,1026.86
2018-11-01T10:45:11.399Z,1026.91
2018-11-01T10:46:11.433Z,1026.94
2018-11-01T10:47:11.461Z,1026.98
2018-11-01T10:48:11.492Z,1026.96
2018-11-01T10:49:11.523Z,1027.02
2018-11-01T10:50:11.554Z,1026.99
2018-11-01T10:51:11.592Z,1027.04
2018-11-01T10:52:11.625Z,1027.02
2018-11-01T10:53:11.652Z,1027.07
2018-11-01T10:54:11.797Z,1027.02
2018-11-01T10:55:11.715Z,1026.95
2018-11-01T10:56:11.745Z,1026.93
2018-11-01T10:57:11.775Z,1026.92
2018-11-01T10:58:11.807Z,1026.84
2018-11-01T10:59:11.839Z,1026.88
2018-11-01T11:00:11.994Z,1026.97
2018-11-01T11:01:12.109Z,1026.90
2018-11-01T11:02:11.935Z,1026.90
2018-11-01T11:03:11.965Z,1026.89
2018-11-01T11:04:12.000Z,1026.94
2018-11-01T11:05:12.031Z,1026.96
2018-11-01T11:06:12.060Z,1026.99
2018-11-01T11:07:12.095Z,1026.94
2018-11-01T11:08:12.123Z,1026.91
2018-11-01T11:09:12.158Z,1026.88
2018-11-01T11:10:12.197Z,1026.85
2018-11-01T11:11:12.217Z,1026.78
2018-11-01T11:12:12.250Z,1026.78
2018-11-01T11:13:12.280Z,1026.77
2018-11-01T11:14:12.315Z,1026.71
2018-11-01T11:15:12.342Z,1026.69
2018-11-01T11:16:12.376Z,1026.70
2018-11-01T11:17:12.408Z,1026.72
2018-11-01T11:18:12.437Z,1026.68
2018-11-01T11:19:12.471Z,1026.64
2018-11-01T11:20:12.642Z,1026.69
2018-11-01T11:21:12.851Z,1026.73
2018-11-01T11:22:12.565Z,1026.72
2018-11-01T11:23:12.597Z,1026.69
2018-11-01T11:24:12.629Z,1026.70
2018-11-01T11:25:12.662Z,1026.68
2018-11-01T11:26:12.700Z,1026.66
2018-11-01T11:27:12.723Z,1026.63
2018-11-01T11:28:12.757Z,1026.63
2018-11-01T11:29:12.787Z,1026.59
2018-11-01T11:30:12.933Z,1026.61
2018-11-01T11:31:12.853Z,1026.62
2018-11-01T11:32:12.881Z,1026.60
2018-11-01T11:33:12.914Z,1026.58
2018-11-01T11:34:12.949Z,1026.56
2018-11-01T11:35:13.041Z,1026.57
2018-11-01T11:36:13.011Z,1026.56
2018-11-01T11:37:13.045Z,1026.54
2018-11-01T11:38:13.073Z,1026.51
2018-11-01T11:39:13.184Z,1026.58
2018-11-01T11:40:13.139Z,1026.57
2018-11-01T11:41:13.321Z,1026.59
2018-11-01T11:42:13.202Z,1026.64
2018-11-01T11:43:13.230Z,1026.57
2018-11-01T11:44:13.263Z,1026.60
2018-11-01T11:45:13.300Z,1026.57
2018-11-01T11:46:13.327Z,1026.61
2018-11-01T11:47:13.359Z,1026.59
2018-11-01T11:48:13.389Z,1026.57
2018-11-01T11:49:13.422Z,1026.54
2018-11-01T11:50:13.454Z,1026.54
2018-11-01T11:51:13.526Z,1026.46
2018-11-01T11:52:13.517Z,1026.49
2018-11-01T11:53:13.548Z,1026.49
2018-11-01T11:54:13.581Z,1026.45
2018-11-01T11:55:13.610Z,1026.43
2018-11-01T11:56:13.644Z,1026.43
2018-11-01T11:57:13.875Z,1026.35
2018-11-01T11:58:13.710Z,1026.36
2018-11-01T11:59:13.738Z,1026.37
2018-11-01T12:00:13.773Z,1026.29
2018-11-01T12:01:13.798Z,1026.31
2018-11-01T12:02:13.859Z,1026.31
2018-11-01T12:03:13.864Z,1026.33
2018-11-01T12:04:13.895Z,1026.32
2018-11-01T12:05:13.939Z,1026.32
2018-11-01T12:06:14.130Z,1026.34